Impacts TAF Board
For situational awareness. Not to be used for flight planning purposes.
IDs:

KFMN - Farmington/Four Corn, NM, US

Issued at 1738 UTC 02 Aug 2021
Updated at 2252 UTC 02 Aug 2021
Potential Impact None Slight Moderate High
Time2153Z 02/23Z 03/00Z 03/01Z 03/02Z 03/03Z 03/04Z 03/05Z 03/06Z 03/07Z 03/08Z 03/09Z 03/10Z 03/11Z>>
Type OBS PRVL
  [TEMP]  
PRVL PRVL PRVL PRVL PRVL PRVL PRVL PRVL PRVL PRVL PRVL PRVL
VIS 10 >6
  [6]  
>6 >6 >6 >6 >6 >6 >6 >6 >6 >6 >6 >6
CIG -- --
  [80]  
-- -- -- -- -- -- -- -- -- -- -- --
Cover CLR SCT
  [BKN]  
SCT SCT SCT SCT SCT SCT SCT SCT SCT SCT SCT SCT
FltCat VFR VFR
  [VFR]  
VFR VFR VFR VFR VFR VFR VFR VFR VFR VFR VFR VFR
WX -- VCSH
  [TSRA]  
VCSH VCSH -- -- -- -- -- -- -- -- -- --
WDir VRB 310
[VRB]
310 310 80 80 80 80 80 80 80 80 80 80
WSpd 5 10
  [15]  
10 10 7 7 7 7 7 7 7 7 7 7
WGst -- --
  [25]  
-- -- -- -- -- -- -- -- -- -- -- --
Raw TAF
KFMN 021738Z 0218/0318 28010KT P6SM FEW100
  FM022000 31010KT P6SM VCSH SCT100
  TEMPO 0221/0224 VRB15G25KT 6SM TSRA BKN080CB
  FM030200 08007KT P6SM SCT100


Raw METAR
KFMN 022153Z VRB05KT 10SM CLR 30/12 A3023 RMK AO2 SLP169 T03000117
KFMN 022053Z VRB04KT 10SM CLR 28/12 A3026 RMK AO2 SLP186 T02830122 56027
KFMN 021953Z VRB03KT 10SM CLR 28/13 A3029 RMK AO2 SLP196 T02780133

METAR Board
Radar Display
Forecast Discussion
For situational awareness. Not to be used for flight planning purposes.